sensor_id;sensor_type;location;lat;lon;timestamp;temperature;humidity
26053;DHT22;13826;51.186;4.450;2022-11-20T00:01:46;5.20;57.70
26053;DHT22;13826;51.186;4.450;2022-11-20T00:04:12;5.30;51.90
26053;DHT22;13826;51.186;4.450;2022-11-20T00:06:38;5.40;49.50
26053;DHT22;13826;51.186;4.450;2022-11-20T00:09:03;5.50;48.30
26053;DHT22;13826;51.186;4.450;2022-11-20T00:11:31;5.40;41.80
26053;DHT22;13826;51.186;4.450;2022-11-20T00:13:59;5.30;44.00
26053;DHT22;13826;51.186;4.450;2022-11-20T00:16:28;5.10;43.60
26053;DHT22;13826;51.186;4.450;2022-11-20T00:18:55;5.20;44.60
26053;DHT22;13826;51.186;4.450;2022-11-20T00:21:26;5.10;43.60
26053;DHT22;13826;51.186;4.450;2022-11-20T00:23:54;5.10;44.40
26053;DHT22;13826;51.186;4.450;2022-11-20T00:26:21;5.10;45.10
26053;DHT22;13826;51.186;4.450;2022-11-20T00:28:52;5.30;45.10
26053;DHT22;13826;51.186;4.450;2022-11-20T00:31:18;5.50;42.20
26053;DHT22;13826;51.186;4.450;2022-11-20T00:33:44;5.50;45.40
26053;DHT22;13826;51.186;4.450;2022-11-20T00:36:12;5.50;48.00
26053;DHT22;13826;51.186;4.450;2022-11-20T00:38:38;5.50;36.20
26053;DHT22;13826;51.186;4.450;2022-11-20T00:41:07;5.60;24.00
26053;DHT22;13826;51.186;4.450;2022-11-20T00:43:33;5.50;20.30
26053;DHT22;13826;51.186;4.450;2022-11-20T00:46:15;5.30;22.40
26053;DHT22;13826;51.186;4.450;2022-11-20T00:48:41;5.10;31.60
26053;DHT22;13826;51.186;4.450;2022-11-20T00:51:07;5.30;40.50
26053;DHT22;13826;51.186;4.450;2022-11-20T00:53:33;5.40;41.10
26053;DHT22;13826;51.186;4.450;2022-11-20T00:56:04;5.20;34.30
26053;DHT22;13826;51.186;4.450;2022-11-20T00:58:33;5.30;33.90
26053;DHT22;13826;51.186;4.450;2022-11-20T01:01:16;5.10;25.70
26053;DHT22;13826;51.186;4.450;2022-11-20T01:03:45;5.20;26.10
26053;DHT22;13826;51.186;4.450;2022-11-20T01:06:23;5.10;27.50
26053;DHT22;13826;51.186;4.450;2022-11-20T01:08:50;5.10;30.60
26053;DHT22;13826;51.186;4.450;2022-11-20T01:11:21;5.20;28.00
26053;DHT22;13826;51.186;4.450;2022-11-20T01:13:48;5.20;27.90
26053;DHT22;13826;51.186;4.450;2022-11-20T01:16:32;5.20;30.00
26053;DHT22;13826;51.186;4.450;2022-11-20T01:19:01;5.10;33.20
26053;DHT22;13826;51.186;4.450;2022-11-20T01:21:30;4.90;38.50
26053;DHT22;13826;51.186;4.450;2022-11-20T01:23:56;4.90;40.80
26053;DHT22;13826;51.186;4.450;2022-11-20T01:26:25;4.90;41.70
26053;DHT22;13826;51.186;4.450;2022-11-20T01:28:51;5.10;37.70
26053;DHT22;13826;51.186;4.450;2022-11-20T01:31:20;5.20;32.50
26053;DHT22;13826;51.186;4.450;2022-11-20T01:33:48;5.30;30.10
26053;DHT22;13826;51.186;4.450;2022-11-20T01:36:15;5.20;36.80
26053;DHT22;13826;51.186;4.450;2022-11-20T01:38:41;5.20;36.50
26053;DHT22;13826;51.186;4.450;2022-11-20T01:41:09;5.10;38.50
26053;DHT22;13826;51.186;4.450;2022-11-20T01:43:35;5.00;46.80
26053;DHT22;13826;51.186;4.450;2022-11-20T01:46:13;5.00;48.90
26053;DHT22;13826;51.186;4.450;2022-11-20T01:48:53;5.10;51.10
26053;DHT22;13826;51.186;4.450;2022-11-20T01:53:55;4.80;51.20
26053;DHT22;13826;51.186;4.450;2022-11-20T01:56:24;4.70;59.70
26053;DHT22;13826;51.186;4.450;2022-11-20T01:58:54;4.80;59.60
26053;DHT22;13826;51.186;4.450;2022-11-20T02:01:22;4.70;61.50
26053;DHT22;13826;51.186;4.450;2022-11-20T02:03:48;4.50;65.40
26053;DHT22;13826;51.186;4.450;2022-11-20T02:06:36;4.50;69.70
26053;DHT22;13826;51.186;4.450;2022-11-20T02:09:04;4.50;66.10
26053;DHT22;13826;51.186;4.450;2022-11-20T02:11:30;4.40;65.20
26053;DHT22;13826;51.186;4.450;2022-11-20T02:13:56;4.40;60.90
26053;DHT22;13826;51.186;4.450;2022-11-20T02:16:25;4.30;63.90
26053;DHT22;13826;51.186;4.450;2022-11-20T02:18:53;4.50;68.00
26053;DHT22;13826;51.186;4.450;2022-11-20T02:21:43;4.70;73.40
26053;DHT22;13826;51.186;4.450;2022-11-20T02:24:18;4.80;71.00
26053;DHT22;13826;51.186;4.450;2022-11-20T02:29:51;4.80;77.60
26053;DHT22;13826;51.186;4.450;2022-11-20T02:32:38;4.80;76.80
26053;DHT22;13826;51.186;4.450;2022-11-20T02:37:50;4.70;74.40
26053;DHT22;13826;51.186;4.450;2022-11-20T02:40:18;4.90;73.80
26053;DHT22;13826;51.186;4.450;2022-11-20T02:42:47;4.70;74.30
26053;DHT22;13826;51.186;4.450;2022-11-20T02:45:12;4.70;77.00
26053;DHT22;13826;51.186;4.450;2022-11-20T02:47:38;4.50;80.60
26053;DHT22;13826;51.186;4.450;2022-11-20T02:50:05;4.50;81.90
26053;DHT22;13826;51.186;4.450;2022-11-20T02:52:30;4.40;84.60
26053;DHT22;13826;51.186;4.450;2022-11-20T02:54:56;4.40;83.90
26053;DHT22;13826;51.186;4.450;2022-11-20T02:57:22;4.40;85.60
26053;DHT22;13826;51.186;4.450;2022-11-20T02:59:47;4.40;86.30
26053;DHT22;13826;51.186;4.450;2022-11-20T03:02:13;4.30;88.60
26053;DHT22;13826;51.186;4.450;2022-11-20T03:04:39;4.40;89.80
26053;DHT22;13826;51.186;4.450;2022-11-20T03:07:04;4.50;90.00
26053;DHT22;13826;51.186;4.450;2022-11-20T03:09:30;4.40;89.80
26053;DHT22;13826;51.186;4.450;2022-11-20T03:11:56;4.50;87.70
26053;DHT22;13826;51.186;4.450;2022-11-20T03:14:21;4.50;86.60
26053;DHT22;13826;51.186;4.450;2022-11-20T03:16:47;4.40;87.20
26053;DHT22;13826;51.186;4.450;2022-11-20T03:19:13;4.40;90.20
26053;DHT22;13826;51.186;4.450;2022-11-20T03:21:38;4.50;90.30
26053;DHT22;13826;51.186;4.450;2022-11-20T03:24:04;4.60;88.90
26053;DHT22;13826;51.186;4.450;2022-11-20T03:26:30;4.70;84.80
26053;DHT22;13826;51.186;4.450;2022-11-20T03:29:01;4.50;85.50
26053;DHT22;13826;51.186;4.450;2022-11-20T03:31:32;4.40;89.30
26053;DHT22;13826;51.186;4.450;2022-11-20T03:33:59;4.40;90.20
26053;DHT22;13826;51.186;4.450;2022-11-20T03:36:25;4.50;90.10
26053;DHT22;13826;51.186;4.450;2022-11-20T03:38:53;4.50;90.20
26053;DHT22;13826;51.186;4.450;2022-11-20T03:41:28;4.50;91.50
26053;DHT22;13826;51.186;4.450;2022-11-20T03:43:56;4.60;90.50
26053;DHT22;13826;51.186;4.450;2022-11-20T03:46:22;4.80;90.00
26053;DHT22;13826;51.186;4.450;2022-11-20T03:48:49;4.80;87.40
26053;DHT22;13826;51.186;4.450;2022-11-20T03:51:16;4.80;86.00
26053;DHT22;13826;51.186;4.450;2022-11-20T03:53:44;4.80;85.00
26053;DHT22;13826;51.186;4.450;2022-11-20T03:56:11;4.70;89.30
26053;DHT22;13826;51.186;4.450;2022-11-20T03:58:39;4.50;90.80
26053;DHT22;13826;51.186;4.450;2022-11-20T04:01:13;4.60;92.00
26053;DHT22;13826;51.186;4.450;2022-11-20T04:03:40;4.70;91.80
26053;DHT22;13826;51.186;4.450;2022-11-20T04:06:08;4.80;90.40
26053;DHT22;13826;51.186;4.450;2022-11-20T04:08:35;4.80;90.20
26053;DHT22;13826;51.186;4.450;2022-11-20T04:11:12;4.80;90.90
26053;DHT22;13826;51.186;4.450;2022-11-20T04:13:37;5.00;90.70
26053;DHT22;13826;51.186;4.450;2022-11-20T04:16:04;5.00;90.10
26053;DHT22;13826;51.186;4.450;2022-11-20T04:18:30;5.10;90.10
26053;DHT22;13826;51.186;4.450;2022-11-20T04:20:57;5.20;88.00
26053;DHT22;13826;51.186;4.450;2022-11-20T04:23:23;5.30;87.10
26053;DHT22;13826;51.186;4.450;2022-11-20T04:25:48;5.20;84.40
26053;DHT22;13826;51.186;4.450;2022-11-20T04:28:14;5.20;86.20
26053;DHT22;13826;51.186;4.450;2022-11-20T04:30:39;5.30;86.50
26053;DHT22;13826;51.186;4.450;2022-11-20T04:33:05;5.20;84.50
26053;DHT22;13826;51.186;4.450;2022-11-20T04:35:34;5.30;82.30
26053;DHT22;13826;51.186;4.450;2022-11-20T04:38:00;5.10;81.40
26053;DHT22;13826;51.186;4.450;2022-11-20T04:40:25;5.20;83.10
26053;DHT22;13826;51.186;4.450;2022-11-20T04:42:51;5.10;83.10
26053;DHT22;13826;51.186;4.450;2022-11-20T04:45:17;5.10;84.90
26053;DHT22;13826;51.186;4.450;2022-11-20T04:47:42;5.20;86.50
26053;DHT22;13826;51.186;4.450;2022-11-20T04:50:08;5.10;83.30
26053;DHT22;13826;51.186;4.450;2022-11-20T04:52:35;4.90;82.80
26053;DHT22;13826;51.186;4.450;2022-11-20T04:55:01;5.10;83.80
26053;DHT22;13826;51.186;4.450;2022-11-20T04:57:26;5.10;81.60
26053;DHT22;13826;51.186;4.450;2022-11-20T04:59:52;5.20;81.50
26053;DHT22;13826;51.186;4.450;2022-11-20T05:02:18;5.10;83.10
26053;DHT22;13826;51.186;4.450;2022-11-20T05:04:43;5.30;81.80
26053;DHT22;13826;51.186;4.450;2022-11-20T05:07:09;5.30;79.20
26053;DHT22;13826;51.186;4.450;2022-11-20T05:09:35;5.00;81.00
26053;DHT22;13826;51.186;4.450;2022-11-20T05:12:00;5.10;83.90
26053;DHT22;13826;51.186;4.450;2022-11-20T05:14:26;5.10;83.60
26053;DHT22;13826;51.186;4.450;2022-11-20T05:16:51;5.10;85.90
26053;DHT22;13826;51.186;4.450;2022-11-20T05:19:17;5.20;85.80
26053;DHT22;13826;51.186;4.450;2022-11-20T05:21:43;5.30;84.20
26053;DHT22;13826;51.186;4.450;2022-11-20T05:24:08;5.40;82.00
26053;DHT22;13826;51.186;4.450;2022-11-20T05:26:34;5.30;81.70
26053;DHT22;13826;51.186;4.450;2022-11-20T05:29:00;5.10;80.40
26053;DHT22;13826;51.186;4.450;2022-11-20T05:31:26;5.20;82.80
26053;DHT22;13826;51.186;4.450;2022-11-20T05:33:52;5.00;86.90
26053;DHT22;13826;51.186;4.450;2022-11-20T05:36:17;5.00;89.40
26053;DHT22;13826;51.186;4.450;2022-11-20T05:38:43;5.20;85.10
26053;DHT22;13826;51.186;4.450;2022-11-20T05:41:17;5.00;86.90
26053;DHT22;13826;51.186;4.450;2022-11-20T05:43:44;4.90;89.00
26053;DHT22;13826;51.186;4.450;2022-11-20T05:46:14;4.80;90.20
26053;DHT22;13826;51.186;4.450;2022-11-20T05:48:41;4.70;92.00
26053;DHT22;13826;51.186;4.450;2022-11-20T05:51:09;4.60;92.80
26053;DHT22;13826;51.186;4.450;2022-11-20T05:53:35;4.50;93.60
26053;DHT22;13826;51.186;4.450;2022-11-20T05:56:03;4.30;95.00
26053;DHT22;13826;51.186;4.450;2022-11-20T05:58:30;4.10;96.10
26053;DHT22;13826;51.186;4.450;2022-11-20T06:01:13;4.20;97.10
26053;DHT22;13826;51.186;4.450;2022-11-20T06:03:40;4.40;96.50
26053;DHT22;13826;51.186;4.450;2022-11-20T06:06:08;4.60;95.20
26053;DHT22;13826;51.186;4.450;2022-11-20T06:08:33;4.60;94.50
26053;DHT22;13826;51.186;4.450;2022-11-20T06:11:04;4.50;94.10
26053;DHT22;13826;51.186;4.450;2022-11-20T06:13:29;4.70;93.40
26053;DHT22;13826;51.186;4.450;2022-11-20T06:15:55;4.70;92.50
26053;DHT22;13826;51.186;4.450;2022-11-20T06:18:21;4.60;92.60
26053;DHT22;13826;51.186;4.450;2022-11-20T06:20:46;4.60;94.00
26053;DHT22;13826;51.186;4.450;2022-11-20T06:23:13;4.70;93.50
26053;DHT22;13826;51.186;4.450;2022-11-20T06:25:39;4.70;93.20
26053;DHT22;13826;51.186;4.450;2022-11-20T06:28:06;4.60;92.80
26053;DHT22;13826;51.186;4.450;2022-11-20T06:30:31;4.60;94.20
26053;DHT22;13826;51.186;4.450;2022-11-20T06:32:57;4.70;93.50
26053;DHT22;13826;51.186;4.450;2022-11-20T06:35:22;4.90;92.70
26053;DHT22;13826;51.186;4.450;2022-11-20T06:37:48;4.90;90.70
26053;DHT22;13826;51.186;4.450;2022-11-20T06:40:14;4.80;90.50
26053;DHT22;13826;51.186;4.450;2022-11-20T06:42:39;4.80;92.00
26053;DHT22;13826;51.186;4.450;2022-11-20T06:45:05;4.90;92.40
26053;DHT22;13826;51.186;4.450;2022-11-20T06:47:31;4.80;91.90
26053;DHT22;13826;51.186;4.450;2022-11-20T06:49:56;5.00;91.80
26053;DHT22;13826;51.186;4.450;2022-11-20T06:52:22;5.10;90.30
26053;DHT22;13826;51.186;4.450;2022-11-20T06:54:47;5.00;90.00
26053;DHT22;13826;51.186;4.450;2022-11-20T06:57:13;4.90;91.10
26053;DHT22;13826;51.186;4.450;2022-11-20T06:59:39;4.90;92.00
26053;DHT22;13826;51.186;4.450;2022-11-20T07:02:04;4.90;92.50
26053;DHT22;13826;51.186;4.450;2022-11-20T07:04:30;4.90;92.10
26053;DHT22;13826;51.186;4.450;2022-11-20T07:06:56;4.90;92.80
26053;DHT22;13826;51.186;4.450;2022-11-20T07:09:21;4.90;93.40
26053;DHT22;13826;51.186;4.450;2022-11-20T07:11:47;5.00;93.10
26053;DHT22;13826;51.186;4.450;2022-11-20T07:14:12;5.00;92.80
26053;DHT22;13826;51.186;4.450;2022-11-20T07:16:38;4.80;94.20
26053;DHT22;13826;51.186;4.450;2022-11-20T07:19:03;4.70;95.30
26053;DHT22;13826;51.186;4.450;2022-11-20T07:21:29;4.90;95.70
26053;DHT22;13826;51.186;4.450;2022-11-20T07:23:54;5.10;93.40
26053;DHT22;13826;51.186;4.450;2022-11-20T07:26:20;5.20;92.00
26053;DHT22;13826;51.186;4.450;2022-11-20T07:28:46;5.00;92.30
26053;DHT22;13826;51.186;4.450;2022-11-20T07:31:11;5.10;92.60
26053;DHT22;13826;51.186;4.450;2022-11-20T07:33:38;5.00;93.10
26053;DHT22;13826;51.186;4.450;2022-11-20T07:36:04;4.90;94.90
26053;DHT22;13826;51.186;4.450;2022-11-20T07:38:30;4.90;94.60
26053;DHT22;13826;51.186;4.450;2022-11-20T07:40:56;5.00;95.40
26053;DHT22;13826;51.186;4.450;2022-11-20T07:43:23;5.20;94.30
26053;DHT22;13826;51.186;4.450;2022-11-20T07:45:50;5.10;93.90
26053;DHT22;13826;51.186;4.450;2022-11-20T07:48:15;5.10;93.60
26053;DHT22;13826;51.186;4.450;2022-11-20T07:50:41;5.20;92.10
26053;DHT22;13826;51.186;4.450;2022-11-20T07:53:07;5.00;93.10
26053;DHT22;13826;51.186;4.450;2022-11-20T07:55:33;5.20;93.30
26053;DHT22;13826;51.186;4.450;2022-11-20T07:57:59;5.20;93.30
26053;DHT22;13826;51.186;4.450;2022-11-20T08:00:25;5.30;92.60
26053;DHT22;13826;51.186;4.450;2022-11-20T08:02:51;5.40;92.00
26053;DHT22;13826;51.186;4.450;2022-11-20T08:05:17;5.40;91.80
26053;DHT22;13826;51.186;4.450;2022-11-20T08:07:43;5.20;93.00
26053;DHT22;13826;51.186;4.450;2022-11-20T08:10:12;5.10;93.90
26053;DHT22;13826;51.186;4.450;2022-11-20T08:12:51;5.30;93.60
26053;DHT22;13826;51.186;4.450;2022-11-20T08:15:37;5.40;93.00
26053;DHT22;13826;51.186;4.450;2022-11-20T08:18:08;5.40;92.10
26053;DHT22;13826;51.186;4.450;2022-11-20T08:20:34;5.30;93.70
26053;DHT22;13826;51.186;4.450;2022-11-20T08:23:03;5.50;93.30
26053;DHT22;13826;51.186;4.450;2022-11-20T08:25:30;5.50;92.00
26053;DHT22;13826;51.186;4.450;2022-11-20T08:27:59;5.30;93.10
26053;DHT22;13826;51.186;4.450;2022-11-20T08:30:25;5.10;95.30
26053;DHT22;13826;51.186;4.450;2022-11-20T08:32:51;5.20;96.20
26053;DHT22;13826;51.186;4.450;2022-11-20T08:35:17;5.50;95.70
26053;DHT22;13826;51.186;4.450;2022-11-20T08:37:46;5.70;93.50
26053;DHT22;13826;51.186;4.450;2022-11-20T08:40:12;5.90;91.20
26053;DHT22;13826;51.186;4.450;2022-11-20T08:42:46;5.90;90.10
26053;DHT22;13826;51.186;4.450;2022-11-20T08:45:12;6.00;87.60
26053;DHT22;13826;51.186;4.450;2022-11-20T08:47:38;5.90;88.70
26053;DHT22;13826;51.186;4.450;2022-11-20T08:50:04;5.90;90.00
26053;DHT22;13826;51.186;4.450;2022-11-20T08:52:29;6.00;90.70
26053;DHT22;13826;51.186;4.450;2022-11-20T08:54:55;6.00;90.90
26053;DHT22;13826;51.186;4.450;2022-11-20T08:57:20;6.10;88.90
26053;DHT22;13826;51.186;4.450;2022-11-20T08:59:46;6.10;90.10
26053;DHT22;13826;51.186;4.450;2022-11-20T09:02:12;6.10;90.80
26053;DHT22;13826;51.186;4.450;2022-11-20T09:04:37;6.00;90.80
26053;DHT22;13826;51.186;4.450;2022-11-20T09:07:03;5.80;93.80
26053;DHT22;13826;51.186;4.450;2022-11-20T09:09:29;5.60;95.80
26053;DHT22;13826;51.186;4.450;2022-11-20T09:11:54;5.70;96.30
26053;DHT22;13826;51.186;4.450;2022-11-20T09:14:20;5.80;95.80
26053;DHT22;13826;51.186;4.450;2022-11-20T09:16:46;6.00;94.50
26053;DHT22;13826;51.186;4.450;2022-11-20T09:19:12;6.10;93.60
26053;DHT22;13826;51.186;4.450;2022-11-20T09:21:38;6.20;93.40
26053;DHT22;13826;51.186;4.450;2022-11-20T09:24:04;6.20;93.70
26053;DHT22;13826;51.186;4.450;2022-11-20T09:26:30;6.20;93.70
26053;DHT22;13826;51.186;4.450;2022-11-20T09:28:56;6.50;93.10
26053;DHT22;13826;51.186;4.450;2022-11-20T09:31:23;6.20;92.70
26053;DHT22;13826;51.186;4.450;2022-11-20T09:33:49;6.20;94.70
26053;DHT22;13826;51.186;4.450;2022-11-20T09:36:15;6.30;94.50
26053;DHT22;13826;51.186;4.450;2022-11-20T09:38:42;6.60;93.70
26053;DHT22;13826;51.186;4.450;2022-11-20T09:44:48;6.60;92.50
26053;DHT22;13826;51.186;4.450;2022-11-20T09:55:10;6.70;93.70
26053;DHT22;13826;51.186;4.450;2022-11-20T09:57:40;7.00;91.30
26053;DHT22;13826;51.186;4.450;2022-11-20T10:00:10;7.10;90.20
26053;DHT22;13826;51.186;4.450;2022-11-20T10:02:53;7.10;90.10
26053;DHT22;13826;51.186;4.450;2022-11-20T10:08:30;6.90;93.90
26053;DHT22;13826;51.186;4.450;2022-11-20T10:21:48;6.70;98.30
26053;DHT22;13826;51.186;4.450;2022-11-20T10:29:49;7.00;98.10
26053;DHT22;13826;51.186;4.450;2022-11-20T10:32:24;6.90;98.30
26053;DHT22;13826;51.186;4.450;2022-11-20T10:37:44;7.20;99.00
26053;DHT22;13826;51.186;4.450;2022-11-20T10:42:53;7.20;97.40
26053;DHT22;13826;51.186;4.450;2022-11-20T10:47:54;7.20;99.50
26053;DHT22;13826;51.186;4.450;2022-11-20T10:50:21;7.30;98.80
26053;DHT22;13826;51.186;4.450;2022-11-20T11:01:18;7.60;96.80
26053;DHT22;13826;51.186;4.450;2022-11-20T11:03:44;7.80;96.80
26053;DHT22;13826;51.186;4.450;2022-11-20T11:08:50;7.70;97.60
26053;DHT22;13826;51.186;4.450;2022-11-20T11:11:40;7.70;98.10
26053;DHT22;13826;51.186;4.450;2022-11-20T11:14:10;7.90;96.90
26053;DHT22;13826;51.186;4.450;2022-11-20T11:16:52;7.90;97.10
26053;DHT22;13826;51.186;4.450;2022-11-20T11:19:18;7.70;98.90
26053;DHT22;13826;51.186;4.450;2022-11-20T11:21:48;7.90;98.60
26053;DHT22;13826;51.186;4.450;2022-11-20T11:24:27;7.80;98.80
26053;DHT22;13826;51.186;4.450;2022-11-20T11:27:04;7.90;98.70
26053;DHT22;13826;51.186;4.450;2022-11-20T11:29:36;8.10;98.90
26053;DHT22;13826;51.186;4.450;2022-11-20T11:32:28;8.30;97.10
26053;DHT22;13826;51.186;4.450;2022-11-20T11:35:01;8.50;94.30
26053;DHT22;13826;51.186;4.450;2022-11-20T11:37:32;8.60;94.30
26053;DHT22;13826;51.186;4.450;2022-11-20T11:39:59;8.70;94.70
26053;DHT22;13826;51.186;4.450;2022-11-20T11:42:24;8.80;94.40
26053;DHT22;13826;51.186;4.450;2022-11-20T11:44:50;8.90;94.40
26053;DHT22;13826;51.186;4.450;2022-11-20T11:55:14;8.90;93.20
26053;DHT22;13826;51.186;4.450;2022-11-20T11:57:45;8.90;93.00
26053;DHT22;13826;51.186;4.450;2022-11-20T12:00:19;8.90;94.20
26053;DHT22;13826;51.186;4.450;2022-11-20T12:05:27;9.00;94.80
26053;DHT22;13826;51.186;4.450;2022-11-20T12:08:11;9.20;93.50
26053;DHT22;13826;51.186;4.450;2022-11-20T12:10:59;9.40;91.40
26053;DHT22;13826;51.186;4.450;2022-11-20T12:13:47;9.30;92.40
26053;DHT22;13826;51.186;4.450;2022-11-20T12:16:16;9.40;91.40
26053;DHT22;13826;51.186;4.450;2022-11-20T12:18:43;9.50;91.00
26053;DHT22;13826;51.186;4.450;2022-11-20T12:21:28;9.50;91.00
26053;DHT22;13826;51.186;4.450;2022-11-20T12:46:06;9.90;89.30
26053;DHT22;13826;51.186;4.450;2022-11-20T12:48:52;10.10;86.10
26053;DHT22;13826;51.186;4.450;2022-11-20T12:51:45;9.90;88.90
26053;DHT22;13826;51.186;4.450;2022-11-20T12:57:36;9.70;93.10
26053;DHT22;13826;51.186;4.450;2022-11-20T13:00:11;9.60;93.20
26053;DHT22;13826;51.186;4.450;2022-11-20T13:08:39;9.50;96.70
26053;DHT22;13826;51.186;4.450;2022-11-20T13:19:13;9.40;96.10
26053;DHT22;13826;51.186;4.450;2022-11-20T13:21:41;9.40;95.70
26053;DHT22;13826;51.186;4.450;2022-11-20T13:24:21;9.40;96.50
26053;DHT22;13826;51.186;4.450;2022-11-20T13:27:00;9.30;97.40
26053;DHT22;13826;51.186;4.450;2022-11-20T13:29:26;9.40;97.80
26053;DHT22;13826;51.186;4.450;2022-11-20T13:32:15;9.40;96.90
26053;DHT22;13826;51.186;4.450;2022-11-20T13:34:55;9.40;97.60
26053;DHT22;13826;51.186;4.450;2022-11-20T13:37:38;9.40;98.40
26053;DHT22;13826;51.186;4.450;2022-11-20T13:42:44;9.20;99.90
26053;DHT22;13826;51.186;4.450;2022-11-20T13:45:23;9.20;99.90
26053;DHT22;13826;51.186;4.450;2022-11-20T13:47:50;9.10;99.90
26053;DHT22;13826;51.186;4.450;2022-11-20T13:50:17;9.00;99.90
26053;DHT22;13826;51.186;4.450;2022-11-20T13:53:48;9.00;99.90
26053;DHT22;13826;51.186;4.450;2022-11-20T14:01:31;9.10;99.90
26053;DHT22;13826;51.186;4.450;2022-11-20T14:03:57;9.00;99.90
26053;DHT22;13826;51.186;4.450;2022-11-20T14:06:27;8.90;99.90
26053;DHT22;13826;51.186;4.450;2022-11-20T14:08:54;8.90;99.90
26053;DHT22;13826;51.186;4.450;2022-11-20T14:11:28;8.90;99.90
26053;DHT22;13826;51.186;4.450;2022-11-20T14:14:18;8.90;99.90
26053;DHT22;13826;51.186;4.450;2022-11-20T14:16:44;8.90;99.90
26053;DHT22;13826;51.186;4.450;2022-11-20T14:21:49;9.00;99.90
26053;DHT22;13826;51.186;4.450;2022-11-20T14:24:24;8.90;99.90
26053;DHT22;13826;51.186;4.450;2022-11-20T14:26:51;9.00;99.90
26053;DHT22;13826;51.186;4.450;2022-11-20T14:29:19;9.00;99.90
26053;DHT22;13826;51.186;4.450;2022-11-20T14:31:48;9.00;99.90
26053;DHT22;13826;51.186;4.450;2022-11-20T14:34:18;9.00;99.90
26053;DHT22;13826;51.186;4.450;2022-11-20T14:36:45;8.90;99.90
26053;DHT22;13826;51.186;4.450;2022-11-20T14:39:19;8.90;99.90
26053;DHT22;13826;51.186;4.450;2022-11-20T14:41:52;8.90;99.90
26053;DHT22;13826;51.186;4.450;2022-11-20T14:44:21;9.00;99.90
26053;DHT22;13826;51.186;4.450;2022-11-20T14:46:50;9.00;99.90
26053;DHT22;13826;51.186;4.450;2022-11-20T14:49:16;9.10;99.90
26053;DHT22;13826;51.186;4.450;2022-11-20T14:51:42;9.10;99.90
26053;DHT22;13826;51.186;4.450;2022-11-20T14:54:09;9.10;99.90
26053;DHT22;13826;51.186;4.450;2022-11-20T14:56:35;9.10;99.90
26053;DHT22;13826;51.186;4.450;2022-11-20T14:59:01;9.00;99.90
26053;DHT22;13826;51.186;4.450;2022-11-20T15:01:29;9.00;99.90
26053;DHT22;13826;51.186;4.450;2022-11-20T15:04:06;9.00;99.90
26053;DHT22;13826;51.186;4.450;2022-11-20T15:06:33;9.10;99.90
26053;DHT22;13826;51.186;4.450;2022-11-20T15:08:58;9.10;99.90
26053;DHT22;13826;51.186;4.450;2022-11-20T15:11:52;9.10;99.90
26053;DHT22;13826;51.186;4.450;2022-11-20T15:14:18;9.10;99.90
26053;DHT22;13826;51.186;4.450;2022-11-20T15:16:44;9.00;99.90
26053;DHT22;13826;51.186;4.450;2022-11-20T15:19:17;9.20;99.90
26053;DHT22;13826;51.186;4.450;2022-11-20T15:21:44;9.20;99.90
26053;DHT22;13826;51.186;4.450;2022-11-20T15:24:09;9.20;99.90
26053;DHT22;13826;51.186;4.450;2022-11-20T15:26:36;9.20;99.90
26053;DHT22;13826;51.186;4.450;2022-11-20T15:29:04;9.30;99.90
26053;DHT22;13826;51.186;4.450;2022-11-20T15:31:29;9.30;99.90
26053;DHT22;13826;51.186;4.450;2022-11-20T15:33:55;9.30;99.90
26053;DHT22;13826;51.186;4.450;2022-11-20T15:36:21;9.30;99.90
26053;DHT22;13826;51.186;4.450;2022-11-20T15:38:46;9.30;99.90
26053;DHT22;13826;51.186;4.450;2022-11-20T15:41:12;9.40;99.90
26053;DHT22;13826;51.186;4.450;2022-11-20T15:43:39;9.30;99.90
26053;DHT22;13826;51.186;4.450;2022-11-20T15:46:15;9.30;99.90
26053;DHT22;13826;51.186;4.450;2022-11-20T15:48:51;9.30;99.90
26053;DHT22;13826;51.186;4.450;2022-11-20T15:51:37;9.30;99.90
26053;DHT22;13826;51.186;4.450;2022-11-20T15:54:10;9.30;99.90
26053;DHT22;13826;51.186;4.450;2022-11-20T15:56:36;9.30;99.90
26053;DHT22;13826;51.186;4.450;2022-11-20T15:59:02;9.20;99.90
26053;DHT22;13826;51.186;4.450;2022-11-20T16:01:28;9.10;99.90
26053;DHT22;13826;51.186;4.450;2022-11-20T16:03:54;9.10;99.90
26053;DHT22;13826;51.186;4.450;2022-11-20T16:06:19;9.20;99.90
26053;DHT22;13826;51.186;4.450;2022-11-20T16:08:45;9.00;99.90
26053;DHT22;13826;51.186;4.450;2022-11-20T16:11:15;8.90;99.90
26053;DHT22;13826;51.186;4.450;2022-11-20T16:13:41;8.80;99.90
26053;DHT22;13826;51.186;4.450;2022-11-20T16:16:34;8.80;99.90
26053;DHT22;13826;51.186;4.450;2022-11-20T16:19:00;8.80;99.90
26053;DHT22;13826;51.186;4.450;2022-11-20T16:21:27;8.80;99.90
26053;DHT22;13826;51.186;4.450;2022-11-20T16:23:57;8.70;99.90
26053;DHT22;13826;51.186;4.450;2022-11-20T16:26:23;8.80;99.90
26053;DHT22;13826;51.186;4.450;2022-11-20T16:28:49;8.80;99.90
26053;DHT22;13826;51.186;4.450;2022-11-20T16:31:16;8.80;99.90
26053;DHT22;13826;51.186;4.450;2022-11-20T16:33:42;8.70;99.90
26053;DHT22;13826;51.186;4.450;2022-11-20T16:38:34;8.70;99.90
26053;DHT22;13826;51.186;4.450;2022-11-20T16:41:01;8.70;99.90
26053;DHT22;13826;51.186;4.450;2022-11-20T16:43:27;8.70;99.90
26053;DHT22;13826;51.186;4.450;2022-11-20T16:45:52;8.70;99.90
26053;DHT22;13826;51.186;4.450;2022-11-20T16:48:18;8.60;99.90
26053;DHT22;13826;51.186;4.450;2022-11-20T16:50:49;8.60;99.90
26053;DHT22;13826;51.186;4.450;2022-11-20T16:53:15;8.70;99.90
26053;DHT22;13826;51.186;4.450;2022-11-20T16:55:41;8.70;99.90
26053;DHT22;13826;51.186;4.450;2022-11-20T16:58:06;8.60;99.90
26053;DHT22;13826;51.186;4.450;2022-11-20T17:00:35;8.60;99.90
26053;DHT22;13826;51.186;4.450;2022-11-20T17:03:02;8.60;99.90
26053;DHT22;13826;51.186;4.450;2022-11-20T17:05:29;8.50;99.90
26053;DHT22;13826;51.186;4.450;2022-11-20T17:07:57;8.50;99.90
26053;DHT22;13826;51.186;4.450;2022-11-20T17:10:22;8.60;99.90
26053;DHT22;13826;51.186;4.450;2022-11-20T17:12:48;8.50;99.90
26053;DHT22;13826;51.186;4.450;2022-11-20T17:15:14;8.40;99.90
26053;DHT22;13826;51.186;4.450;2022-11-20T17:17:39;8.50;99.90
26053;DHT22;13826;51.186;4.450;2022-11-20T17:20:05;8.50;99.90
26053;DHT22;13826;51.186;4.450;2022-11-20T17:22:31;8.60;99.90
26053;DHT22;13826;51.186;4.450;2022-11-20T17:24:57;8.60;99.90
26053;DHT22;13826;51.186;4.450;2022-11-20T17:27:23;8.70;99.90
26053;DHT22;13826;51.186;4.450;2022-11-20T17:29:49;8.60;99.90
26053;DHT22;13826;51.186;4.450;2022-11-20T17:32:14;8.50;99.90
26053;DHT22;13826;51.186;4.450;2022-11-20T17:34:40;8.40;99.90
26053;DHT22;13826;51.186;4.450;2022-11-20T17:37:06;8.40;99.90
26053;DHT22;13826;51.186;4.450;2022-11-20T17:39:31;8.30;99.90
26053;DHT22;13826;51.186;4.450;2022-11-20T17:41:57;8.30;99.90
26053;DHT22;13826;51.186;4.450;2022-11-20T17:44:41;8.20;99.90
26053;DHT22;13826;51.186;4.450;2022-11-20T17:47:07;8.20;99.90
26053;DHT22;13826;51.186;4.450;2022-11-20T17:49:32;8.20;99.90
26053;DHT22;13826;51.186;4.450;2022-11-20T17:51:58;8.20;99.90
26053;DHT22;13826;51.186;4.450;2022-11-20T17:54:24;8.20;99.90
26053;DHT22;13826;51.186;4.450;2022-11-20T17:56:50;8.10;99.90